createdAt,value
2022-08-03T00:00:17.115Z,18.96
2022-08-03T00:03:05.214Z,18.96
2022-08-03T00:05:38.378Z,18.96
2022-08-03T00:08:08.896Z,18.94
2022-08-03T00:10:39.996Z,18.93
2022-08-03T00:13:13.283Z,18.92
2022-08-03T00:16:16.029Z,18.91
2022-08-03T00:18:47.586Z,18.92
2022-08-03T00:21:18.180Z,18.91
2022-08-03T00:23:51.406Z,18.89
2022-08-03T00:26:23.726Z,18.93
2022-08-03T00:28:54.522Z,18.94
2022-08-03T00:31:39.839Z,18.95
2022-08-03T00:34:57.547Z,18.96
2022-08-03T00:37:40.619Z,18.99
2022-08-03T00:40:17.346Z,18.98
2022-08-03T00:42:59.166Z,18.96
2022-08-03T00:45:34.857Z,18.94
2022-08-03T00:48:06.925Z,18.90
2022-08-03T00:50:57.389Z,18.85
2022-08-03T00:53:55.806Z,18.82
2022-08-03T00:56:26.783Z,18.79
2022-08-03T00:59:00.509Z,18.79
2022-08-03T01:01:32.723Z,18.77
2022-08-03T01:04:03.216Z,18.75
2022-08-03T01:09:47.628Z,18.81
2022-08-03T01:21:52.358Z,18.58
2022-08-03T01:25:00.905Z,18.58
2022-08-03T01:32:53.348Z,18.55
2022-08-03T01:34:27.606Z,18.58
2022-08-03T01:41:21.522Z,18.66
2022-08-03T01:44:28.093Z,18.67
2022-08-03T01:46:50.496Z,18.67
2022-08-03T01:53:43.186Z,18.67
2022-08-03T01:56:20.691Z,18.64
2022-08-03T01:58:53.872Z,18.65
2022-08-03T02:02:15.400Z,18.62
2022-08-03T02:04:56.760Z,18.58
2022-08-03T02:07:30.661Z,18.56
2022-08-03T02:10:08.588Z,18.54
2022-08-03T02:12:41.235Z,18.56
2022-08-03T02:15:14.597Z,18.56
2022-08-03T02:18:18.622Z,18.56
2022-08-03T02:20:53.185Z,18.57
2022-08-03T02:23:24.790Z,18.57
2022-08-03T02:26:03.214Z,18.57
2022-08-03T02:28:58.703Z,18.56
2022-08-03T02:31:36.142Z,18.55
2022-08-03T02:38:52.163Z,18.46
2022-08-03T02:41:30.695Z,18.42
2022-08-03T02:44:09.984Z,18.39
2022-08-03T02:46:46.039Z,18.40
2022-08-03T02:49:40.830Z,18.41
2022-08-03T02:52:20.036Z,18.40
2022-08-03T02:54:55.890Z,18.40
2022-08-03T02:57:33.793Z,18.39
2022-08-03T03:03:44.811Z,18.34
2022-08-03T03:06:16.889Z,18.28
2022-08-03T03:08:53.064Z,18.24
2022-08-03T03:11:28.162Z,18.23
2022-08-03T03:13:59.743Z,18.25
2022-08-03T03:17:16.394Z,18.26
2022-08-03T03:19:47.855Z,18.25
2022-08-03T03:22:19.541Z,18.25
2022-08-03T03:24:52.294Z,18.26
2022-08-03T03:27:23.534Z,18.27
2022-08-03T03:29:54.265Z,18.26
2022-08-03T03:32:24.757Z,18.23
2022-08-03T03:35:22.685Z,18.21
2022-08-03T03:37:53.934Z,18.22
2022-08-03T03:40:26.670Z,18.19
2022-08-03T03:42:57.193Z,18.18
2022-08-03T03:45:30.005Z,18.18
2022-08-03T03:48:02.562Z,18.15
2022-08-03T03:50:37.782Z,18.17
2022-08-03T03:53:11.879Z,18.16
2022-08-03T03:56:01.227Z,18.16
2022-08-03T03:58:34.907Z,18.18
2022-08-03T04:01:05.366Z,18.19
2022-08-03T04:03:35.813Z,18.22
2022-08-03T04:06:40.943Z,18.22
2022-08-03T04:09:29.779Z,18.23
2022-08-03T04:12:03.514Z,18.25
2022-08-03T04:14:40.291Z,18.24
2022-08-03T04:20:24.832Z,18.20
2022-08-03T04:22:58.487Z,18.20
2022-08-03T04:25:34.925Z,18.20
2022-08-03T04:28:07.944Z,18.21
2022-08-03T04:30:58.880Z,18.24
2022-08-03T04:34:15.454Z,18.28
2022-08-03T04:41:03.594Z,18.32
2022-08-03T04:43:36.006Z,18.33
2022-08-03T04:46:08.500Z,18.36
2022-08-03T04:48:42.285Z,18.38
2022-08-03T04:51:19.115Z,18.43
2022-08-03T04:53:51.585Z,18.47
2022-08-03T04:56:24.544Z,18.49
2022-08-03T04:58:55.545Z,18.51
2022-08-03T05:01:26.076Z,18.52
2022-08-03T05:04:17.236Z,18.57
2022-08-03T05:08:27.684Z,18.60
2022-08-03T05:10:59.578Z,18.66
2022-08-03T05:13:30.052Z,18.68
2022-08-03T05:16:08.242Z,18.74
2022-08-03T05:18:38.642Z,18.77
2022-08-03T05:21:08.846Z,18.79
2022-08-03T05:23:39.753Z,18.81
2022-08-03T05:26:42.036Z,18.84
2022-08-03T05:29:12.384Z,18.90
2022-08-03T05:31:42.798Z,18.95
2022-08-03T05:34:13.155Z,18.99
2022-08-03T05:37:15.760Z,19.03
2022-08-03T05:39:46.055Z,19.08
2022-08-03T05:42:18.234Z,19.13
2022-08-03T05:44:48.643Z,19.16
2022-08-03T05:47:18.904Z,19.23
2022-08-03T05:49:49.273Z,19.28
2022-08-03T05:52:19.517Z,19.35
2022-08-03T05:54:57.421Z,19.39
2022-08-03T05:57:28.085Z,19.47
2022-08-03T05:59:58.998Z,19.52
2022-08-03T06:02:29.743Z,19.57
2022-08-03T06:05:00.161Z,19.62
2022-08-03T06:07:31.023Z,19.68
2022-08-03T06:10:37.133Z,19.76
2022-08-03T06:12:53.686Z,19.84
2022-08-03T06:15:24.716Z,19.91
2022-08-03T06:17:57.635Z,19.99
2022-08-03T06:20:30.741Z,20.09
2022-08-03T06:23:25.345Z,20.15
2022-08-03T06:26:13.737Z,20.19
2022-08-03T06:28:51.705Z,20.26
2022-08-03T06:31:33.027Z,20.28
2022-08-03T06:37:29.296Z,20.36
2022-08-03T06:40:00.762Z,20.47
2022-08-03T06:50:56.298Z,20.76
2022-08-03T06:55:24.636Z,20.96
2022-08-03T07:02:45.371Z,21.56
2022-08-03T07:05:16.225Z,21.73
2022-08-03T07:07:46.636Z,21.93
2022-08-03T07:10:54.076Z,22.12
2022-08-03T07:13:26.942Z,22.28
2022-08-03T07:15:58.066Z,22.40
2022-08-03T07:18:30.097Z,22.48
2022-08-03T07:25:31.957Z,22.57
2022-08-03T07:31:22.544Z,22.63
2022-08-03T07:33:53.035Z,22.65
2022-08-03T07:36:25.232Z,22.70
2022-08-03T07:39:16.512Z,22.80
2022-08-03T07:41:50.852Z,22.90
2022-08-03T07:44:21.484Z,22.95
2022-08-03T07:51:22.870Z,23.00
2022-08-03T07:53:53.613Z,23.06
2022-08-03T07:56:25.230Z,23.13
2022-08-03T07:59:17.400Z,23.19
2022-08-03T08:02:33.454Z,23.42
2022-08-03T08:05:13.966Z,23.64
2022-08-03T08:07:58.487Z,23.95
2022-08-03T08:10:40.572Z,24.22
2022-08-03T08:13:37.973Z,24.48
2022-08-03T08:16:36.228Z,24.78
2022-08-03T08:36:01.532Z,25.06
2022-08-03T08:39:18.698Z,25.11
2022-08-03T08:42:40.246Z,25.10
2022-08-03T08:45:59.445Z,25.10
2022-08-03T08:49:00.652Z,25.11
2022-08-03T08:52:00.528Z,25.16
2022-08-03T08:55:57.191Z,25.16
2022-08-03T08:59:04.064Z,25.22
2022-08-03T09:01:40.854Z,25.25
2022-08-03T09:10:12.267Z,25.45
2022-08-03T09:12:45.330Z,25.69
2022-08-03T09:15:24.687Z,25.84
2022-08-03T09:17:58.493Z,25.98
2022-08-03T09:20:35.552Z,25.99
2022-08-03T09:23:51.532Z,26.09
2022-08-03T09:27:10.436Z,26.29
2022-08-03T09:30:33.218Z,26.57
2022-08-03T09:33:54.477Z,26.78
2022-08-03T09:37:14.093Z,26.94
2022-08-03T09:40:08.376Z,27.13
2022-08-03T09:43:22.428Z,27.24
2022-08-03T09:46:39.400Z,27.28
2022-08-03T09:49:55.403Z,27.41
2022-08-03T09:53:10.277Z,27.48
2022-08-03T09:56:33.220Z,27.64
2022-08-03T10:00:04.498Z,27.73
2022-08-03T10:03:15.531Z,27.85
2022-08-03T10:06:40.853Z,27.83
2022-08-03T10:10:37.135Z,27.74
2022-08-03T10:13:33.494Z,27.66
2022-08-03T10:16:29.539Z,27.52
2022-08-03T10:19:47.043Z,27.49
2022-08-03T10:22:53.337Z,27.43
2022-08-03T10:30:47.869Z,27.42
2022-08-03T10:34:04.463Z,27.32
2022-08-03T10:37:00.788Z,27.31
2022-08-03T10:40:27.928Z,27.38
2022-08-03T10:42:49.497Z,27.50
2022-08-03T10:45:28.942Z,27.69
2022-08-03T10:48:24.566Z,27.72
2022-08-03T10:56:07.204Z,27.96
2022-08-03T10:58:53.384Z,28.15
2022-08-03T11:02:10.334Z,28.16
2022-08-03T11:05:51.325Z,28.08
2022-08-03T11:08:36.625Z,27.98
2022-08-03T11:11:55.116Z,28.04
2022-08-03T11:19:12.692Z,27.97
2022-08-03T11:22:04.429Z,28.03
2022-08-03T11:25:07.225Z,28.00
2022-08-03T11:28:44.118Z,28.05
2022-08-03T11:31:50.109Z,28.21
2022-08-03T11:35:17.374Z,28.35
2022-08-03T11:38:25.128Z,28.42
2022-08-03T11:46:34.380Z,28.78
2022-08-03T11:49:33.505Z,28.93
2022-08-03T11:52:31.342Z,28.95
2022-08-03T12:00:22.348Z,29.26
2022-08-03T12:03:33.570Z,29.42
2022-08-03T12:06:56.355Z,29.48
2022-08-03T12:09:36.652Z,29.52
2022-08-03T12:12:09.400Z,29.53
2022-08-03T12:20:06.685Z,29.59
2022-08-03T12:28:38.418Z,29.49
2022-08-03T12:31:56.125Z,29.63
2022-08-03T12:35:11.256Z,29.71
2022-08-03T12:37:42.096Z,29.69
2022-08-03T12:41:02.290Z,29.75
2022-08-03T12:44:17.408Z,29.78
2022-08-03T12:47:35.443Z,29.82
2022-08-03T12:50:33.952Z,29.88
2022-08-03T12:53:32.485Z,29.99
2022-08-03T12:56:29.297Z,30.14
2022-08-03T12:59:32.545Z,30.19
2022-08-03T13:02:32.626Z,30.10
2022-08-03T13:05:29.319Z,30.00
2022-08-03T13:08:26.339Z,29.98
2022-08-03T13:11:22.374Z,29.99
2022-08-03T13:14:20.194Z,29.96
2022-08-03T13:17:05.197Z,29.98
2022-08-03T13:20:02.290Z,29.96
2022-08-03T13:23:01.050Z,29.95
2022-08-03T13:25:58.505Z,29.95
2022-08-03T13:28:54.642Z,29.86
2022-08-03T13:31:52.352Z,29.74
2022-08-03T13:34:51.515Z,29.62
2022-08-03T13:37:43.756Z,29.56
2022-08-03T13:40:30.127Z,29.47
2022-08-03T13:43:12.985Z,29.38
2022-08-03T13:45:53.545Z,29.31
2022-08-03T13:48:54.707Z,29.24
2022-08-03T13:51:52.746Z,29.16
2022-08-03T13:54:52.510Z,29.09
2022-08-03T13:58:02.399Z,29.01
2022-08-03T14:01:02.992Z,28.90
2022-08-03T14:04:00.606Z,28.81
2022-08-03T14:06:57.338Z,28.73
2022-08-03T14:09:54.309Z,28.65
2022-08-03T14:12:51.204Z,28.52
2022-08-03T14:15:42.285Z,28.42
2022-08-03T14:18:48.175Z,28.32
2022-08-03T14:21:45.749Z,28.19
2022-08-03T14:24:58.217Z,28.06
2022-08-03T14:27:55.250Z,28.00
2022-08-03T14:30:52.295Z,27.99
2022-08-03T14:33:50.260Z,28.00
2022-08-03T14:36:39.171Z,27.96
2022-08-03T14:39:58.339Z,27.98
2022-08-03T14:42:37.288Z,27.96
2022-08-03T14:45:21.487Z,27.96
2022-08-03T14:50:29.597Z,27.90
2022-08-03T14:51:24.236Z,27.86
2022-08-03T14:54:14.437Z,27.80
2022-08-03T14:57:02.469Z,27.80
2022-08-03T14:59:56.793Z,27.78
2022-08-03T15:02:50.369Z,27.77
2022-08-03T15:05:40.226Z,27.75
2022-08-03T15:08:25.306Z,27.74
2022-08-03T15:11:19.261Z,27.73
2022-08-03T15:14:16.293Z,27.70
2022-08-03T15:17:15.228Z,27.67
2022-08-03T15:20:01.241Z,27.64
2022-08-03T15:22:54.010Z,27.62
2022-08-03T15:26:28.679Z,27.64
2022-08-03T15:30:07.758Z,27.61
2022-08-03T15:32:33.739Z,27.58
2022-08-03T15:35:20.353Z,27.54
2022-08-03T15:37:51.297Z,27.54
2022-08-03T15:40:22.804Z,27.52
2022-08-03T15:43:05.315Z,27.51
2022-08-03T15:45:36.869Z,27.49
2022-08-03T15:48:09.687Z,27.46
2022-08-03T15:50:47.226Z,27.47
2022-08-03T15:53:18.178Z,27.46
2022-08-03T15:55:53.991Z,27.45
2022-08-03T15:59:09.809Z,27.44
2022-08-03T16:01:33.885Z,27.44
2022-08-03T16:04:15.393Z,27.42
2022-08-03T16:06:57.533Z,27.42
2022-08-03T16:09:42.160Z,27.41
2022-08-03T16:12:16.610Z,27.41
2022-08-03T16:14:52.878Z,27.40
2022-08-03T16:17:24.845Z,27.40
2022-08-03T16:19:56.262Z,27.39
2022-08-03T16:23:34.001Z,27.38
2022-08-03T16:26:27.884Z,27.36
2022-08-03T16:29:35.354Z,27.34
2022-08-03T16:32:15.601Z,27.31
2022-08-03T16:34:49.691Z,27.27
2022-08-03T16:37:39.489Z,27.24
2022-08-03T16:41:09.432Z,27.17
2022-08-03T16:43:53.398Z,27.16
2022-08-03T16:46:35.452Z,27.12
2022-08-03T16:49:55.057Z,27.07
2022-08-03T16:52:43.200Z,27.02
2022-08-03T16:55:53.594Z,26.97
2022-08-03T16:58:15.506Z,26.88
2022-08-03T17:00:55.442Z,26.86
2022-08-03T17:03:28.495Z,26.80
2022-08-03T17:06:44.723Z,26.72
2022-08-03T17:09:25.180Z,26.64
2022-08-03T17:12:10.875Z,26.56
2022-08-03T17:14:42.256Z,26.50
2022-08-03T17:17:23.224Z,26.44
2022-08-03T17:19:59.864Z,26.38
2022-08-03T17:22:47.291Z,26.32
2022-08-03T17:25:22.045Z,26.25
2022-08-03T17:28:51.235Z,26.17
2022-08-03T17:31:31.914Z,26.09
2022-08-03T17:34:06.867Z,26.01
2022-08-03T17:37:02.787Z,25.93
2022-08-03T17:39:55.608Z,25.87
2022-08-03T17:42:30.678Z,25.81
2022-08-03T17:45:15.570Z,25.75
2022-08-03T17:47:57.271Z,25.69
2022-08-03T17:50:48.694Z,25.61
2022-08-03T17:53:29.127Z,25.56
2022-08-03T17:56:40.860Z,25.51
2022-08-03T17:59:51.750Z,25.47
2022-08-03T18:03:07.365Z,25.40
2022-08-03T18:06:11.302Z,25.34
2022-08-03T18:08:56.962Z,25.30
2022-08-03T18:11:35.681Z,25.29
2022-08-03T18:14:17.095Z,25.28
2022-08-03T18:16:54.319Z,25.24
2022-08-03T18:20:01.918Z,25.25
2022-08-03T18:23:50.358Z,25.24
2022-08-03T18:26:24.255Z,25.20
2022-08-03T18:28:56.109Z,25.18
2022-08-03T18:31:33.084Z,25.16
2022-08-03T18:37:15.144Z,25.08
2022-08-03T18:39:49.606Z,25.05
2022-08-03T18:42:25.584Z,25.02
2022-08-03T18:44:57.482Z,24.96
2022-08-03T18:47:53.169Z,24.95
2022-08-03T18:50:46.453Z,24.90
2022-08-03T18:54:03.245Z,24.84
2022-08-03T18:56:44.256Z,24.76
2022-08-03T18:59:30.493Z,24.68
2022-08-03T19:02:36.960Z,24.65
2022-08-03T19:05:12.914Z,24.61
2022-08-03T19:08:08.927Z,24.57
2022-08-03T19:11:06.087Z,24.54
2022-08-03T19:13:53.259Z,24.51
2022-08-03T19:17:10.276Z,24.47
2022-08-03T19:19:49.302Z,24.43
2022-08-03T19:22:28.321Z,24.40
2022-08-03T19:25:18.408Z,24.37
2022-08-03T19:28:04.027Z,24.32
2022-08-03T19:30:46.259Z,24.29
2022-08-03T19:33:29.910Z,24.25
2022-08-03T19:36:03.300Z,24.20
2022-08-03T19:38:38.972Z,24.15
2022-08-03T19:42:32.066Z,24.11
2022-08-03T19:45:14.643Z,24.03
2022-08-03T19:47:50.395Z,24.00
2022-08-03T19:50:28.272Z,23.98
2022-08-03T19:53:04.764Z,23.95
2022-08-03T19:55:49.187Z,23.92
2022-08-03T19:58:28.753Z,23.89
2022-08-03T20:01:00.400Z,23.85
2022-08-03T20:03:54.548Z,23.81
2022-08-03T20:06:26.770Z,23.78
2022-08-03T20:08:57.671Z,23.74
2022-08-03T20:11:29.287Z,23.71
2022-08-03T20:14:01.067Z,23.68
2022-08-03T20:17:09.252Z,23.64
2022-08-03T20:19:41.359Z,23.60
2022-08-03T20:22:14.732Z,23.56
2022-08-03T20:24:53.059Z,23.52
2022-08-03T20:27:30.213Z,23.49
2022-08-03T20:30:06.282Z,23.45
2022-08-03T20:32:37.683Z,23.42
2022-08-03T20:35:11.852Z,23.37
2022-08-03T20:37:42.785Z,23.34
2022-08-03T20:40:15.606Z,23.30
2022-08-03T20:42:46.010Z,23.27
2022-08-03T20:45:59.098Z,23.24
2022-08-03T20:48:10.674Z,23.20
2022-08-03T20:50:43.515Z,23.16
2022-08-03T20:53:14.618Z,23.13
2022-08-03T20:56:03.426Z,23.08
2022-08-03T20:58:35.119Z,23.05
2022-08-03T21:01:06.904Z,23.01
2022-08-03T21:03:40.749Z,22.97
2022-08-03T21:06:27.785Z,22.93
2022-08-03T21:09:07.137Z,22.88
2022-08-03T21:11:46.447Z,22.84
2022-08-03T21:12:58.522Z,25.13
2022-08-03T21:14:40.750Z,22.80
2022-08-03T21:17:19.454Z,22.76
2022-08-03T21:20:09.859Z,22.71
2022-08-03T21:22:44.499Z,22.67
2022-08-03T21:25:17.603Z,22.64
2022-08-03T21:27:48.952Z,22.60
2022-08-03T21:30:20.906Z,22.58
2022-08-03T21:32:54.057Z,22.54
2022-08-03T21:35:33.174Z,22.52
2022-08-03T21:38:30.009Z,22.50
2022-08-03T21:41:03.396Z,22.47
2022-08-03T21:43:34.114Z,22.43
2022-08-03T21:46:14.958Z,22.37
2022-08-03T21:48:49.363Z,22.34
2022-08-03T21:51:25.185Z,22.30
2022-08-03T21:54:02.790Z,22.27
2022-08-03T21:56:43.403Z,22.22
2022-08-03T21:59:22.118Z,22.18
2022-08-03T22:01:55.185Z,22.15
2022-08-03T22:04:50.069Z,22.11
2022-08-03T22:07:49.518Z,22.07
2022-08-03T22:10:20.117Z,22.02
2022-08-03T22:12:50.625Z,21.99
2022-08-03T22:15:21.339Z,21.96
2022-08-03T22:17:55.860Z,21.93
2022-08-03T22:20:27.607Z,21.91
2022-08-03T22:23:02.110Z,21.89
2022-08-03T22:25:35.662Z,21.86
2022-08-03T22:28:12.268Z,21.84
2022-08-03T22:30:43.686Z,21.82
2022-08-03T22:33:15.777Z,21.78
2022-08-03T22:35:48.535Z,21.76
2022-08-03T22:38:20.425Z,21.73
2022-08-03T22:40:52.318Z,21.70
2022-08-03T22:43:27.288Z,21.67
2022-08-03T22:46:10.600Z,21.63
2022-08-03T22:53:22.182Z,21.54
2022-08-03T22:55:53.924Z,21.51
2022-08-03T22:58:24.424Z,21.48
2022-08-03T23:06:01.735Z,21.41
2022-08-03T23:08:27.494Z,21.39
2022-08-03T23:11:05.418Z,21.37
2022-08-03T23:13:36.726Z,21.35
2022-08-03T23:16:08.798Z,21.31
2022-08-03T23:18:44.268Z,21.27
2022-08-03T23:21:15.317Z,21.23
2022-08-03T23:23:46.299Z,21.18
2022-08-03T23:26:20.837Z,21.15
2022-08-03T23:28:51.923Z,21.13
2022-08-03T23:31:23.645Z,21.10
2022-08-03T23:34:16.516Z,21.07
2022-08-03T23:36:50.806Z,21.06
2022-08-03T23:39:21.626Z,21.04
2022-08-03T23:41:53.910Z,21.02
2022-08-03T23:44:25.987Z,21.00
2022-08-03T23:46:56.583Z,20.98
2022-08-03T23:49:26.906Z,20.97
2022-08-03T23:52:25.401Z,20.96
2022-08-03T23:55:26.347Z,20.94
2022-08-03T23:58:17.848Z,20.93
